createdAt,value
2018-06-02T00:00:34.878Z,1011.21
2018-06-02T00:01:34.795Z,1011.25
2018-06-02T00:02:35.026Z,1011.22
2018-06-02T00:03:34.992Z,1011.21
2018-06-02T00:04:35.018Z,1011.16
2018-06-02T00:05:35.160Z,1011.21
2018-06-02T00:06:35.217Z,1011.19
2018-06-02T00:07:35.290Z,1011.17
2018-06-02T00:08:35.278Z,1011.17
2018-06-02T00:09:35.315Z,1011.15
2018-06-02T00:10:35.353Z,1011.17
2018-06-02T00:11:35.434Z,1011.19
2018-06-02T00:12:35.408Z,1011.17
2018-06-02T00:13:35.693Z,1011.21
2018-06-02T00:14:35.702Z,1011.23
2018-06-02T00:15:35.763Z,1011.25
2018-06-02T00:16:35.784Z,1011.24
2018-06-02T00:17:35.826Z,1011.3
2018-06-02T00:18:35.887Z,1011.29
2018-06-02T00:19:36.301Z,1011.27
2018-06-02T00:20:36.765Z,1011.35
2018-06-02T00:21:37.175Z,1011.35
2018-06-02T00:22:37.559Z,1011.32
2018-06-02T00:23:38.004Z,1011.33
2018-06-02T00:24:38.148Z,1011.32
2018-06-02T00:25:38.521Z,1011.31
2018-06-02T00:26:38.651Z,1011.31
2018-06-02T00:27:38.699Z,1011.31
2018-06-02T00:28:39.153Z,1011.3
2018-06-02T00:29:39.164Z,1011.37
2018-06-02T00:30:39.303Z,1011.37
2018-06-02T00:31:39.484Z,1011.35
2018-06-02T00:32:39.563Z,1011.36
2018-06-02T00:33:39.555Z,1011.34
2018-06-02T00:34:39.672Z,1011.31
2018-06-02T00:35:40.062Z,1011.36
2018-06-02T00:36:40.102Z,1011.34
2018-06-02T00:37:40.144Z,1011.32
2018-06-02T00:38:40.179Z,1011.32
2018-06-02T00:39:40.215Z,1011.38
2018-06-02T00:40:40.416Z,1011.38
2018-06-02T00:41:40.644Z,1011.38
2018-06-02T00:42:40.734Z,1011.42
2018-06-02T00:43:40.945Z,1011.42
2018-06-02T00:44:41.239Z,1011.43
2018-06-02T00:45:41.267Z,1011.41
2018-06-02T00:46:41.305Z,1011.45
2018-06-02T00:47:41.530Z,1011.44
2018-06-02T00:48:41.817Z,1011.42
2018-06-02T00:49:42.027Z,1011.44
2018-06-02T00:50:42.087Z,1011.44
2018-06-02T00:51:42.115Z,1011.41
2018-06-02T00:52:42.128Z,1011.44
2018-06-02T00:53:42.167Z,1011.4
2018-06-02T00:54:42.228Z,1011.45
2018-06-02T00:55:42.255Z,1011.41
2018-06-02T00:56:42.787Z,1011.42
2018-06-02T00:57:42.722Z,1011.38
2018-06-02T00:58:42.893Z,1011.39
2018-06-02T00:59:42.969Z,1011.5
2018-06-02T01:00:42.973Z,1011.5
2018-06-02T01:01:43.375Z,1011.49
2018-06-02T01:02:43.416Z,1011.47
2018-06-02T01:03:43.445Z,1011.5
2018-06-02T01:04:43.533Z,1011.54
2018-06-02T01:05:43.663Z,1011.49
2018-06-02T01:06:43.806Z,1011.53
2018-06-02T01:07:43.893Z,1011.54
2018-06-02T01:08:43.898Z,1011.51
2018-06-02T01:09:43.935Z,1011.55
2018-06-02T01:10:43.793Z,1011.52
2018-06-02T01:11:44.033Z,1011.54
2018-06-02T01:12:44.066Z,1011.51
2018-06-02T01:13:44.074Z,1011.55
2018-06-02T01:14:43.973Z,1011.53
2018-06-02T01:15:43.897Z,1011.55
2018-06-02T01:16:44.277Z,1011.54
2018-06-02T01:17:43.969Z,1011.51
2018-06-02T01:18:44.786Z,1011.55
2018-06-02T01:19:44.799Z,1011.59
2018-06-02T01:20:44.410Z,1011.56
2018-06-02T01:21:44.410Z,1011.62
2018-06-02T01:22:44.465Z,1011.58
2018-06-02T01:23:44.507Z,1011.61
2018-06-02T01:24:44.522Z,1011.56
2018-06-02T01:25:44.752Z,1011.55
2018-06-02T01:26:44.997Z,1011.54
2018-06-02T01:27:44.961Z,1011.54
2018-06-02T01:28:45.346Z,1011.56
2018-06-02T01:29:45.428Z,1011.49
2018-06-02T01:30:45.429Z,1011.55
2018-06-02T01:31:45.466Z,1011.57
2018-06-02T01:32:45.912Z,1011.53
2018-06-02T01:33:45.696Z,1011.55
2018-06-02T01:34:45.644Z,1011.59
2018-06-02T01:35:45.736Z,1011.62
2018-06-02T01:36:45.856Z,1011.66
2018-06-02T01:37:45.709Z,1011.67
2018-06-02T01:38:45.955Z,1011.71
2018-06-02T01:39:45.948Z,1011.71
2018-06-02T01:40:46.345Z,1011.72
2018-06-02T01:41:46.368Z,1011.69
2018-06-02T01:42:46.414Z,1011.74
2018-06-02T01:43:46.451Z,1011.71
2018-06-02T01:44:46.559Z,1011.71
2018-06-02T01:45:46.828Z,1011.66
2018-06-02T01:46:46.722Z,1011.68
2018-06-02T01:47:46.682Z,1011.67
2018-06-02T01:48:46.779Z,1011.69
2018-06-02T01:49:46.680Z,1011.67
2018-06-02T01:50:47.076Z,1011.68
2018-06-02T01:51:47.203Z,1011.75
2018-06-02T01:52:47.211Z,1011.67
2018-06-02T01:53:46.899Z,1011.74
2018-06-02T01:54:46.842Z,1011.7
2018-06-02T01:55:47.036Z,1011.7
2018-06-02T01:56:47.193Z,1011.64
2018-06-02T01:57:47.137Z,1011.69
2018-06-02T01:58:47.148Z,1011.65
2018-06-02T01:59:47.313Z,1011.66
2018-06-02T02:00:47.228Z,1011.67
2018-06-02T02:01:47.300Z,1011.71
2018-06-02T02:02:47.382Z,1011.68
2018-06-02T02:03:47.341Z,1011.68
2018-06-02T02:04:47.763Z,1011.69
2018-06-02T02:05:47.795Z,1011.72
2018-06-02T02:06:47.902Z,1011.75
2018-06-02T02:07:48.108Z,1011.68
2018-06-02T02:08:48.294Z,1011.7
2018-06-02T02:09:48.333Z,1011.68
2018-06-02T02:10:48.402Z,1011.69
2018-06-02T02:11:48.400Z,1011.66
2018-06-02T02:12:48.448Z,1011.7
2018-06-02T02:13:48.621Z,1011.7
2018-06-02T02:14:48.640Z,1011.72
2018-06-02T02:15:49.019Z,1011.72
2018-06-02T02:16:49.433Z,1011.7
2018-06-02T02:17:49.474Z,1011.67
2018-06-02T02:18:49.613Z,1011.7
2018-06-02T02:19:49.637Z,1011.73
2018-06-02T02:20:49.759Z,1011.7
2018-06-02T02:21:50.268Z,1011.73
2018-06-02T02:22:50.248Z,1011.7
2018-06-02T02:23:50.310Z,1011.73
2018-06-02T02:24:50.619Z,1011.71
2018-06-02T02:25:50.651Z,1011.73
2018-06-02T02:26:50.676Z,1011.73
2018-06-02T02:27:50.730Z,1011.74
2018-06-02T02:28:50.847Z,1011.75
2018-06-02T02:29:50.791Z,1011.73
2018-06-02T02:30:50.975Z,1011.76
2018-06-02T02:31:51.000Z,1011.77
2018-06-02T02:32:51.116Z,1011.76
2018-06-02T02:33:51.316Z,1011.77
2018-06-02T02:34:51.307Z,1011.79
2018-06-02T02:35:51.667Z,1011.79
2018-06-02T02:36:51.718Z,1011.8
2018-06-02T02:37:51.875Z,1011.8
2018-06-02T02:38:51.937Z,1011.84
2018-06-02T02:39:51.958Z,1011.82
2018-06-02T02:40:52.001Z,1011.83
2018-06-02T02:41:53.013Z,1011.8
2018-06-02T02:42:52.665Z,1011.8
2018-06-02T02:43:52.631Z,1011.8
2018-06-02T02:44:52.702Z,1011.81
2018-06-02T02:45:52.773Z,1011.83
2018-06-02T02:46:52.790Z,1011.84
2018-06-02T02:47:52.841Z,1011.82
2018-06-02T02:48:53.014Z,1011.81
2018-06-02T02:49:52.922Z,1011.86
2018-06-02T02:50:53.016Z,1011.84
2018-06-02T02:51:52.993Z,1011.85
2018-06-02T02:52:53.107Z,1011.85
2018-06-02T02:53:53.063Z,1011.9
2018-06-02T02:54:53.328Z,1011.83
2018-06-02T02:55:53.484Z,1011.88
2018-06-02T02:56:53.196Z,1011.87
2018-06-02T02:57:53.687Z,1011.85
2018-06-02T02:58:53.359Z,1011.9
2018-06-02T02:59:53.898Z,1011.93
2018-06-02T03:00:54.179Z,1011.92
2018-06-02T03:01:53.989Z,1011.91
2018-06-02T03:02:53.976Z,1011.92
2018-06-02T03:03:54.012Z,1011.91
2018-06-02T03:04:54.055Z,1011.89
2018-06-02T03:05:54.117Z,1011.91
2018-06-02T03:06:54.368Z,1011.95
2018-06-02T03:07:54.392Z,1011.88
2018-06-02T03:08:54.739Z,1011.91
2018-06-02T03:09:54.769Z,1011.94
2018-06-02T03:10:55.159Z,1011.95
2018-06-02T03:11:55.485Z,1011.96
2018-06-02T03:12:55.517Z,1011.96
2018-06-02T03:13:55.543Z,1012
2018-06-02T03:14:55.587Z,1011.97
2018-06-02T03:15:55.638Z,1012.01
2018-06-02T03:16:55.650Z,1012.03
2018-06-02T03:17:55.713Z,1012.04
2018-06-02T03:18:55.735Z,1012.01
2018-06-02T03:19:55.799Z,1012.07
2018-06-02T03:20:55.790Z,1012.08
2018-06-02T03:21:56.203Z,1012.02
2018-06-02T03:22:56.328Z,1012.02
2018-06-02T03:23:56.094Z,1012.03
2018-06-02T03:24:56.138Z,1012.05
2018-06-02T03:25:56.612Z,1012.03
2018-06-02T03:26:56.631Z,1012.01
2018-06-02T03:27:56.928Z,1012.01
2018-06-02T03:28:56.969Z,1012.07
2018-06-02T03:29:57.318Z,1012.02
2018-06-02T03:30:57.367Z,1012.07
2018-06-02T03:31:57.889Z,1011.99
2018-06-02T03:32:57.881Z,1011.99
2018-06-02T03:33:58.097Z,1011.99
2018-06-02T03:34:58.134Z,1012.01
2018-06-02T03:35:58.179Z,1011.96
2018-06-02T03:36:58.203Z,1011.93
2018-06-02T03:37:58.240Z,1011.9
2018-06-02T03:38:58.279Z,1011.91
2018-06-02T03:39:58.307Z,1011.94
2018-06-02T03:40:58.730Z,1011.94
2018-06-02T03:41:58.731Z,1011.94
2018-06-02T03:42:58.766Z,1011.94
2018-06-02T03:43:58.803Z,1011.95
2018-06-02T03:44:58.835Z,1011.96
2018-06-02T03:45:59.312Z,1011.96
2018-06-02T03:46:59.344Z,1011.97
2018-06-02T03:47:59.380Z,1011.96
2018-06-02T03:48:59.417Z,1011.97
2018-06-02T03:49:59.700Z,1011.96
2018-06-02T03:50:59.994Z,1011.98
2018-06-02T03:52:00.215Z,1011.97
2018-06-02T03:53:00.248Z,1012
2018-06-02T03:54:00.282Z,1012
2018-06-02T03:55:00.320Z,1012
2018-06-02T03:56:00.357Z,1012.01
2018-06-02T03:57:00.578Z,1011.98
2018-06-02T03:58:00.613Z,1011.98
2018-06-02T03:59:00.804Z,1011.97
2018-06-02T04:00:00.837Z,1011.99
2018-06-02T04:01:00.928Z,1012.01
2018-06-02T04:02:00.887Z,1011.99
2018-06-02T04:03:00.924Z,1011.97
2018-06-02T04:04:01.154Z,1011.98
2018-06-02T04:05:01.303Z,1012
2018-06-02T04:06:01.325Z,1011.98
2018-06-02T04:07:01.555Z,1011.95
2018-06-02T04:08:01.587Z,1012
2018-06-02T04:09:01.663Z,1012.06
2018-06-02T04:10:01.823Z,1012
2018-06-02T04:11:01.848Z,1012.02
2018-06-02T04:12:02.028Z,1012.02
2018-06-02T04:13:02.352Z,1012
2018-06-02T04:14:02.450Z,1012.05
2018-06-02T04:15:02.612Z,1012.03
2018-06-02T04:16:02.713Z,1012.05
2018-06-02T04:17:03.052Z,1012.03
2018-06-02T04:18:03.041Z,1012.05
2018-06-02T04:19:03.099Z,1012.08
2018-06-02T04:20:03.132Z,1012.01
2018-06-02T04:21:03.523Z,1012.05
2018-06-02T04:22:03.915Z,1012
2018-06-02T04:23:04.186Z,1012.05
2018-06-02T04:24:04.580Z,1012.1
2018-06-02T04:25:04.691Z,1012.07
2018-06-02T04:26:04.742Z,1012.07
2018-06-02T04:27:04.679Z,1012.11
2018-06-02T04:28:04.723Z,1012.09
2018-06-02T04:29:04.755Z,1012.1
2018-06-02T04:30:04.847Z,1012.08
2018-06-02T04:31:04.827Z,1012.15
2018-06-02T04:32:05.046Z,1012.14
2018-06-02T04:33:05.091Z,1012.13
2018-06-02T04:34:05.110Z,1012.1
2018-06-02T04:35:05.285Z,1012.17
2018-06-02T04:36:05.431Z,1012.13
2018-06-02T04:37:05.766Z,1012.15
2018-06-02T04:38:05.792Z,1012.13
2018-06-02T04:39:05.832Z,1012.16
2018-06-02T04:40:06.053Z,1012.15
2018-06-02T04:41:06.482Z,1012.16
2018-06-02T04:42:06.531Z,1012.12
2018-06-02T04:43:06.671Z,1012.13
2018-06-02T04:44:06.883Z,1012.14
2018-06-02T04:45:07.006Z,1012.13
2018-06-02T04:46:07.153Z,1012.11
2018-06-02T04:47:07.528Z,1012.16
2018-06-02T04:48:07.974Z,1012.17
2018-06-02T04:49:08.095Z,1012.12
2018-06-02T04:50:08.126Z,1012.12
2018-06-02T04:51:08.163Z,1012.15
2018-06-02T04:52:08.179Z,1012.14
2018-06-02T04:53:08.218Z,1012.18
2018-06-02T04:54:08.316Z,1012.17
2018-06-02T04:55:08.356Z,1012.18
2018-06-02T04:56:08.389Z,1012.2
2018-06-02T04:57:08.817Z,1012.25
2018-06-02T04:58:09.885Z,1012.21
2018-06-02T04:59:09.658Z,1012.2
2018-06-02T05:00:10.241Z,1012.19
2018-06-02T05:01:10.260Z,1012.21
2018-06-02T05:02:10.444Z,1012.22
2018-06-02T05:03:10.480Z,1012.21
2018-06-02T05:04:10.641Z,1012.2
2018-06-02T05:05:10.687Z,1012.19
2018-06-02T05:06:10.698Z,1012.29
2018-06-02T05:07:10.821Z,1012.29
2018-06-02T05:08:10.853Z,1012.3
2018-06-02T05:09:10.889Z,1012.31
2018-06-02T05:10:11.021Z,1012.3
2018-06-02T05:11:11.074Z,1012.34
2018-06-02T05:12:11.107Z,1012.35
2018-06-02T05:13:11.451Z,1012.32
2018-06-02T05:14:11.619Z,1012.34
2018-06-02T05:15:11.663Z,1012.37
2018-06-02T05:16:11.674Z,1012.38
2018-06-02T05:17:11.709Z,1012.42
2018-06-02T05:18:11.757Z,1012.4
2018-06-02T05:19:11.785Z,1012.4
2018-06-02T05:20:11.941Z,1012.39
2018-06-02T05:21:12.345Z,1012.38
2018-06-02T05:22:12.381Z,1012.4
2018-06-02T05:23:12.813Z,1012.47
2018-06-02T05:24:13.213Z,1012.43
2018-06-02T05:25:13.351Z,1012.39
2018-06-02T05:26:13.289Z,1012.42
2018-06-02T05:27:13.422Z,1012.46
2018-06-02T05:28:13.845Z,1012.43
2018-06-02T05:29:13.891Z,1012.45
2018-06-02T05:30:13.896Z,1012.47
2018-06-02T05:31:14.232Z,1012.42
2018-06-02T05:32:14.660Z,1012.48
2018-06-02T05:33:14.682Z,1012.45
2018-06-02T05:34:14.884Z,1012.46
2018-06-02T05:35:14.754Z,1012.49
2018-06-02T05:36:14.786Z,1012.47
2018-06-02T05:37:15.194Z,1012.49
2018-06-02T05:38:15.347Z,1012.5
2018-06-02T05:39:15.436Z,1012.47
2018-06-02T05:40:15.692Z,1012.54
2018-06-02T05:41:15.738Z,1012.53
2018-06-02T05:42:15.743Z,1012.5
2018-06-02T05:43:16.140Z,1012.5
2018-06-02T05:44:16.515Z,1012.5
2018-06-02T05:45:16.543Z,1012.47
2018-06-02T05:46:16.966Z,1012.53
2018-06-02T05:47:17.071Z,1012.52
2018-06-02T05:48:17.107Z,1012.53
2018-06-02T05:49:17.224Z,1012.53
2018-06-02T05:50:17.644Z,1012.55
2018-06-02T05:51:17.822Z,1012.5
2018-06-02T05:52:18.097Z,1012.5
2018-06-02T05:53:18.116Z,1012.49
2018-06-02T05:54:18.138Z,1012.49
2018-06-02T05:55:18.253Z,1012.52
2018-06-02T05:56:18.479Z,1012.5
2018-06-02T05:57:18.497Z,1012.57
2018-06-02T05:58:18.636Z,1012.52
2018-06-02T05:59:18.651Z,1012.44
2018-06-02T06:00:18.874Z,1012.38
2018-06-02T06:01:18.911Z,1012.39
2018-06-02T06:02:18.949Z,1012.42
2018-06-02T06:03:19.020Z,1012.42
2018-06-02T06:04:19.021Z,1012.37
2018-06-02T06:05:19.057Z,1012.41
2018-06-02T06:06:19.104Z,1012.48
2018-06-02T06:07:19.559Z,1012.44
2018-06-02T06:08:19.777Z,1012.45
2018-06-02T06:09:19.805Z,1012.45
2018-06-02T06:10:19.846Z,1012.4
2018-06-02T06:11:19.876Z,1012.45
2018-06-02T06:12:19.913Z,1012.42
2018-06-02T06:13:20.150Z,1012.42
2018-06-02T06:14:20.181Z,1012.39
2018-06-02T06:15:20.439Z,1012.41
2018-06-02T06:16:20.631Z,1012.45
2018-06-02T06:17:21.094Z,1012.41
2018-06-02T06:18:21.540Z,1012.44
2018-06-02T06:19:21.573Z,1012.45
2018-06-02T06:20:21.615Z,1012.47
2018-06-02T06:21:21.649Z,1012.48
2018-06-02T06:22:22.125Z,1012.46
2018-06-02T06:23:22.173Z,1012.49
2018-06-02T06:24:22.255Z,1012.52
2018-06-02T06:25:22.241Z,1012.5
2018-06-02T06:26:22.300Z,1012.5
2018-06-02T06:27:22.464Z,1012.46
2018-06-02T06:28:22.938Z,1012.51
2018-06-02T06:29:22.970Z,1012.51
2018-06-02T06:30:23.010Z,1012.5
2018-06-02T06:31:23.046Z,1012.51
2018-06-02T06:32:23.081Z,1012.53
2018-06-02T06:33:23.145Z,1012.55
2018-06-02T06:34:23.157Z,1012.58
2018-06-02T06:35:23.193Z,1012.55
2018-06-02T06:36:23.229Z,1012.55
2018-06-02T06:37:23.273Z,1012.57
2018-06-02T06:38:23.485Z,1012.54
2018-06-02T06:39:23.522Z,1012.51
2018-06-02T06:40:23.555Z,1012.5
2018-06-02T06:41:23.594Z,1012.52
2018-06-02T06:42:23.933Z,1012.53
2018-06-02T06:43:24.118Z,1012.5
2018-06-02T06:44:24.187Z,1012.48
2018-06-02T06:45:24.197Z,1012.45
2018-06-02T06:46:24.231Z,1012.43
2018-06-02T06:47:24.267Z,1012.36
2018-06-02T06:48:24.730Z,1012.4
2018-06-02T06:49:24.930Z,1012.36
2018-06-02T06:50:24.962Z,1012.35
2018-06-02T06:51:25.003Z,1012.36
2018-06-02T06:52:25.031Z,1012.34
2018-06-02T06:53:25.073Z,1012.35
2018-06-02T06:54:25.294Z,1012.36
2018-06-02T06:55:25.314Z,1012.36
2018-06-02T06:56:25.353Z,1012.37
2018-06-02T06:57:25.391Z,1012.35
2018-06-02T06:58:25.620Z,1012.36
2018-06-02T06:59:25.653Z,1012.36
2018-06-02T07:00:25.683Z,1012.33
2018-06-02T07:01:25.819Z,1012.36
2018-06-02T07:02:25.948Z,1012.34
2018-06-02T07:03:26.116Z,1012.35
2018-06-02T07:04:26.269Z,1012.4
2018-06-02T07:05:26.355Z,1012.41
2018-06-02T07:06:26.339Z,1012.38
2018-06-02T07:07:26.521Z,1012.42
2018-06-02T07:08:26.665Z,1012.47
2018-06-02T07:09:26.710Z,1012.45
2018-06-02T07:10:26.894Z,1012.46
2018-06-02T07:11:26.969Z,1012.4
2018-06-02T07:12:27.258Z,1012.38
2018-06-02T07:13:27.054Z,1012.41
2018-06-02T07:14:27.055Z,1012.43
2018-06-02T07:15:27.084Z,1012.48
2018-06-02T07:16:27.251Z,1012.46
2018-06-02T07:17:27.642Z,1012.5
2018-06-02T07:18:27.699Z,1012.48
2018-06-02T07:19:27.773Z,1012.49
2018-06-02T07:20:27.769Z,1012.51
2018-06-02T07:21:27.802Z,1012.51
2018-06-02T07:22:27.835Z,1012.55
2018-06-02T07:23:28.273Z,1012.56
2018-06-02T07:24:28.278Z,1012.54
2018-06-02T07:25:28.356Z,1012.65
2018-06-02T07:26:28.357Z,1012.66
2018-06-02T07:27:28.425Z,1012.68
2018-06-02T07:28:28.437Z,1012.66
2018-06-02T07:29:28.493Z,1012.67
2018-06-02T07:30:28.649Z,1012.61
2018-06-02T07:31:28.668Z,1012.63
2018-06-02T07:32:28.725Z,1012.55
2018-06-02T07:33:28.740Z,1012.61
2018-06-02T07:34:28.904Z,1012.59
2018-06-02T07:35:28.925Z,1012.52
2018-06-02T07:36:29.018Z,1012.56
2018-06-02T07:37:29.017Z,1012.55
2018-06-02T07:38:29.034Z,1012.54
2018-06-02T07:39:29.205Z,1012.58
2018-06-02T07:40:29.612Z,1012.56
2018-06-02T07:41:30.021Z,1012.58
2018-06-02T07:42:30.027Z,1012.64
2018-06-02T07:43:30.474Z,1012.57
2018-06-02T07:44:30.962Z,1012.59
2018-06-02T07:45:31.109Z,1012.59
2018-06-02T07:46:31.560Z,1012.57
2018-06-02T07:47:31.734Z,1012.55
2018-06-02T07:48:32.031Z,1012.57
2018-06-02T07:49:32.104Z,1012.57
2018-06-02T07:50:32.125Z,1012.6
2018-06-02T07:51:32.162Z,1012.6
2018-06-02T07:52:32.730Z,1012.63
2018-06-02T07:53:32.782Z,1012.66
2018-06-02T07:54:33.237Z,1012.68
2018-06-02T07:55:33.296Z,1012.58
2018-06-02T07:56:33.331Z,1012.63
2018-06-02T07:57:33.541Z,1012.78
2018-06-02T07:58:33.442Z,1012.9
2018-06-02T07:59:33.854Z,1012.69
2018-06-02T08:00:33.891Z,1012.82
2018-06-02T08:01:34.346Z,1012.9
2018-06-02T08:02:34.379Z,1012.78
2018-06-02T08:03:34.419Z,1012.58
2018-06-02T08:04:34.501Z,1012.52
2018-06-02T08:05:34.508Z,1012.59
2018-06-02T08:06:34.530Z,1012.71
2018-06-02T08:07:35.021Z,1012.61
2018-06-02T08:08:35.526Z,1012.59
2018-06-02T08:09:35.521Z,1012.87
2018-06-02T08:10:36.041Z,1012.72
2018-06-02T08:11:36.301Z,1012.92
2018-06-02T08:12:36.047Z,1012.61
2018-06-02T08:13:36.077Z,1012.56
2018-06-02T08:14:36.135Z,1012.58
2018-06-02T08:15:36.235Z,1012.58
2018-06-02T08:16:36.551Z,1012.59
2018-06-02T08:17:36.597Z,1012.63
2018-06-02T08:18:36.798Z,1012.7
2018-06-02T08:19:37.139Z,1012.73
2018-06-02T08:20:37.413Z,1013.1
2018-06-02T08:21:37.294Z,1013.08
2018-06-02T08:22:37.335Z,1012.84
2018-06-02T08:23:37.483Z,1012.66
2018-06-02T08:24:37.518Z,1012.67
2018-06-02T08:25:37.576Z,1012.95
2018-06-02T08:26:37.820Z,1013.17
2018-06-02T08:27:37.815Z,1013.17
2018-06-02T08:28:37.849Z,1013.22
2018-06-02T08:29:38.070Z,1013.03
2018-06-02T08:30:38.109Z,1013.07
2018-06-02T08:31:38.566Z,1013.1
2018-06-02T08:32:38.615Z,1013.17
2018-06-02T08:33:38.815Z,1012.74
2018-06-02T08:34:38.716Z,1012.79
2018-06-02T08:35:39.258Z,1012.87
2018-06-02T08:36:39.574Z,1012.91
2018-06-02T08:37:40.115Z,1012.84
2018-06-02T08:38:40.155Z,1012.86
2018-06-02T08:39:40.406Z,1012.81
2018-06-02T08:40:40.460Z,1012.81
2018-06-02T08:41:40.780Z,1012.86
2018-06-02T08:42:40.516Z,1012.92
2018-06-02T08:43:40.660Z,1012.93
2018-06-02T08:44:40.703Z,1012.85
2018-06-02T08:45:41.132Z,1013.44
2018-06-02T08:46:41.155Z,1013.4
2018-06-02T08:47:41.186Z,1013.47
2018-06-02T08:48:41.254Z,1012.93
2018-06-02T08:49:41.276Z,1013.31
2018-06-02T08:50:41.324Z,1013.46
2018-06-02T08:51:42.237Z,1013.47
2018-06-02T08:52:41.987Z,1013.44
2018-06-02T08:53:42.314Z,1013.49
2018-06-02T08:54:42.107Z,1013.53
2018-06-02T08:55:42.916Z,1013.31
2018-06-02T08:56:43.207Z,1013.52
2018-06-02T08:57:43.297Z,1013.5
2018-06-02T08:58:43.289Z,1013.46
2018-06-02T08:59:43.404Z,1013.42
2018-06-02T09:00:43.164Z,1013.29
2018-06-02T09:01:43.127Z,1013.1
2018-06-02T09:02:43.170Z,1013.16
2018-06-02T09:03:43.579Z,1013.17
2018-06-02T09:04:43.801Z,1013.42
2018-06-02T09:05:43.666Z,1013.4
2018-06-02T09:06:43.716Z,1013.39
2018-06-02T09:07:44.067Z,1013.48
2018-06-02T09:08:44.106Z,1013.48
2018-06-02T09:09:44.487Z,1013.5
2018-06-02T09:10:44.922Z,1012.9
2018-06-02T09:11:45.325Z,1012.93
2018-06-02T09:12:45.359Z,1012.92
2018-06-02T09:13:45.414Z,1012.92
2018-06-02T09:14:45.877Z,1012.91
2018-06-02T09:15:45.913Z,1012.89
2018-06-02T09:16:46.320Z,1012.92
2018-06-02T09:17:46.715Z,1012.96
2018-06-02T09:18:47.096Z,1012.95
2018-06-02T09:19:47.148Z,1012.98
2018-06-02T09:20:47.304Z,1012.99
2018-06-02T09:21:47.715Z,1013.03
2018-06-02T09:22:47.737Z,1012.99
2018-06-02T09:23:47.804Z,1013.04
2018-06-02T09:24:48.201Z,1013.03
2018-06-02T09:25:48.261Z,1013.04
2018-06-02T09:26:48.716Z,1013.24
2018-06-02T09:27:48.765Z,1013.09
2018-06-02T09:28:48.802Z,1013.06
2018-06-02T09:29:48.830Z,1013.09
2018-06-02T09:30:48.975Z,1013.14
2018-06-02T09:31:49.375Z,1013.19
2018-06-02T09:32:49.473Z,1013.37
2018-06-02T09:33:49.826Z,1013.47
2018-06-02T09:34:49.868Z,1013.45
2018-06-02T09:35:49.913Z,1013.5
2018-06-02T09:36:49.941Z,1013.38
2018-06-02T09:37:49.981Z,1013.12
2018-06-02T09:38:50.062Z,1013.4
2018-06-02T09:39:50.063Z,1013.51
2018-06-02T09:40:50.106Z,1013.6
2018-06-02T09:41:50.163Z,1013.54
2018-06-02T09:42:50.289Z,1013.39
2018-06-02T09:43:50.373Z,1013.31
2018-06-02T09:44:50.756Z,1013.43
2018-06-02T09:45:51.180Z,1013.07
2018-06-02T09:46:51.256Z,1013.28
2018-06-02T09:47:51.389Z,1013.39
2018-06-02T09:48:51.434Z,1013.11
2018-06-02T09:49:52.218Z,1013.15
2018-06-02T09:50:52.241Z,1013.7
2018-06-02T09:51:52.482Z,1013.66
2018-06-02T09:52:52.311Z,1013.68
2018-06-02T09:53:52.442Z,1013.78
2018-06-02T09:54:52.484Z,1013.62
2018-06-02T09:55:52.699Z,1013.72
2018-06-02T09:56:52.473Z,1013.67
2018-06-02T09:57:52.578Z,1013.73
2018-06-02T09:58:52.742Z,1013.55
2018-06-02T09:59:52.594Z,1013.51
2018-06-02T10:00:52.635Z,1013.44
2018-06-02T10:01:52.685Z,1013.63
2018-06-02T10:02:52.728Z,1013.66
2018-06-02T10:03:52.859Z,1013.59
2018-06-02T10:04:52.805Z,1013.51
2018-06-02T10:05:52.838Z,1013.46
2018-06-02T10:06:52.884Z,1013.41
2018-06-02T10:07:53.631Z,1013.37
2018-06-02T10:08:53.338Z,1013.4
2018-06-02T10:09:54.580Z,1012.91
2018-06-02T10:10:54.171Z,1013.21
2018-06-02T10:11:54.436Z,1013.53
2018-06-02T10:12:55.072Z,1013.61
2018-06-02T10:13:54.944Z,1013.41
2018-06-02T10:14:54.920Z,1013.45
2018-06-02T10:15:55.211Z,1013.46
2018-06-02T10:16:54.998Z,1013.52
2018-06-02T10:17:55.038Z,1013.6
2018-06-02T10:18:55.087Z,1013.55
2018-06-02T10:19:55.138Z,1013.22
2018-06-02T10:20:55.161Z,1013
2018-06-02T10:21:55.651Z,1012.97
2018-06-02T10:22:55.691Z,1012.96
2018-06-02T10:23:55.752Z,1012.83
2018-06-02T10:24:55.808Z,1012.96
2018-06-02T10:25:55.833Z,1012.99
2018-06-02T10:26:55.865Z,1012.97
2018-06-02T10:27:55.884Z,1012.94
2018-06-02T10:28:55.943Z,1012.95
2018-06-02T10:29:56.635Z,1012.96
2018-06-02T10:30:56.446Z,1012.92
2018-06-02T10:31:56.706Z,1013
2018-06-02T10:32:56.753Z,1012.97
2018-06-02T10:33:56.823Z,1012.9
2018-06-02T10:34:56.647Z,1012.95
2018-06-02T10:35:56.788Z,1012.96
2018-06-02T10:36:56.833Z,1012.96
2018-06-02T10:37:56.873Z,1012.94
2018-06-02T10:38:57.135Z,1012.98
2018-06-02T10:39:56.960Z,1012.98
2018-06-02T10:40:57.406Z,1012.92
2018-06-02T10:41:57.643Z,1012.94
2018-06-02T10:42:57.539Z,1012.92
2018-06-02T10:43:57.808Z,1012.97
2018-06-02T10:44:58.279Z,1012.96
2018-06-02T10:45:58.327Z,1012.96
2018-06-02T10:46:58.787Z,1012.91
2018-06-02T10:47:59.211Z,1012.92
2018-06-02T10:48:59.614Z,1013.02
2018-06-02T10:49:59.393Z,1012.9
2018-06-02T10:50:59.559Z,1012.97
2018-06-02T10:51:59.856Z,1012.97
2018-06-02T10:52:59.920Z,1013
2018-06-02T10:53:59.971Z,1012.96
2018-06-02T10:55:00.181Z,1012.92
2018-06-02T10:56:00.299Z,1012.87
2018-06-02T10:57:00.298Z,1012.88
2018-06-02T10:58:00.309Z,1012.93
2018-06-02T10:59:00.407Z,1012.93
2018-06-02T11:00:00.385Z,1012.93
2018-06-02T11:01:00.427Z,1012.89
2018-06-02T11:02:00.868Z,1012.95
2018-06-02T11:03:01.764Z,1012.96
2018-06-02T11:04:01.507Z,1012.97
2018-06-02T11:05:01.571Z,1012.96
2018-06-02T11:06:01.641Z,1012.99
2018-06-02T11:07:01.630Z,1013.05
2018-06-02T11:08:01.693Z,1013.06
2018-06-02T11:09:01.730Z,1013.01
2018-06-02T11:10:02.001Z,1013.05
2018-06-02T11:11:02.084Z,1013.1
2018-06-02T11:12:02.095Z,1013.05
2018-06-02T11:13:02.144Z,1013.04
2018-06-02T11:14:02.403Z,1012.99
2018-06-02T11:15:02.887Z,1013
2018-06-02T11:16:02.953Z,1013.06
2018-06-02T11:17:02.980Z,1013.05
2018-06-02T11:18:03.000Z,1013.15
2018-06-02T11:19:03.036Z,1013.09
2018-06-02T11:20:03.307Z,1013.16
2018-06-02T11:21:03.622Z,1013.13
2018-06-02T11:22:04.107Z,1013.09
2018-06-02T11:23:04.371Z,1013.03
2018-06-02T11:24:04.395Z,1013.08
2018-06-02T11:25:04.520Z,1013.1
2018-06-02T11:26:04.490Z,1013.11
2018-06-02T11:27:04.533Z,1013.11
2018-06-02T11:28:04.587Z,1013.07
2018-06-02T11:29:04.610Z,1013.06
2018-06-02T11:30:05.070Z,1013.03
2018-06-02T11:31:05.139Z,1013
2018-06-02T11:32:05.392Z,1013.05
2018-06-02T11:33:05.433Z,1013.02
2018-06-02T11:34:05.769Z,1013.1
2018-06-02T11:35:06.211Z,1013.04
2018-06-02T11:36:06.686Z,1013.05
2018-06-02T11:37:06.422Z,1013.04
2018-06-02T11:38:07.201Z,1013.03
2018-06-02T11:39:07.268Z,1013.02
2018-06-02T11:40:06.990Z,1013.07
2018-06-02T11:41:07.187Z,1013.08
2018-06-02T11:42:07.569Z,1013.07
2018-06-02T11:43:08.048Z,1013.08
2018-06-02T11:44:08.084Z,1013.07
2018-06-02T11:45:09.263Z,1013.05
2018-06-02T11:46:08.894Z,1013.05
2018-06-02T11:47:09.603Z,1013.03
2018-06-02T11:48:10.115Z,1013.03
2018-06-02T11:49:09.865Z,1013.03
2018-06-02T11:50:09.840Z,1012.99
2018-06-02T11:51:09.990Z,1012.99
2018-06-02T11:52:10.048Z,1012.91
2018-06-02T11:53:10.190Z,1012.92
2018-06-02T11:54:10.120Z,1012.94
2018-06-02T11:55:10.234Z,1012.99
2018-06-02T11:56:10.221Z,1012.99
2018-06-02T11:57:10.284Z,1013.05
2018-06-02T11:58:10.249Z,1013.06
2018-06-02T11:59:10.443Z,1013.02
2018-06-02T12:00:24.161Z,1013.03
2018-06-02T12:01:24.035Z,1013.07
2018-06-02T12:02:24.518Z,1013.04
2018-06-02T12:03:24.119Z,1013
2018-06-02T12:04:24.153Z,1013.02
2018-06-02T12:05:24.197Z,1013.01
2018-06-02T12:06:24.273Z,1013.01
2018-06-02T12:07:24.260Z,1013.05
2018-06-02T12:08:24.320Z,1013.02
2018-06-02T12:09:24.380Z,1013.03
2018-06-02T12:10:24.676Z,1013.01
2018-06-02T12:11:24.673Z,1012.98